Lockhart, Minnesota
Current Conditions -  °F | °C
As of 10:15 PM on Monday 22 Dec 2014 (Local Time) from K3N8 Reporting Station
Overcast Overcast  
Wind Chill: 27°   Ceiling: 1200
Heat Index: 32°   Visibility: 7mi
Dew Point: 32°   Wind: 6mph
Humidity: 99%   Direction: 60°ENE
Pressure: 29.69"   Gusts: NA
Location:  47.3701°N, 96.4867°W
Report Text: K3N8 230415Z AUTO 06005KT 7SM OVC012 00/00 A2969 RMK AO2 T00020000
Loading
Personal Weather Stations






























Interactive Weather Map New forecast layout! Learn more

10-Day Weather Forecast

Advertisements
Track Severe Weather on mobile